createdAt,value
2022-09-28T00:05:43.998Z,100
2022-09-28T00:12:25.759Z,100
2022-09-28T00:18:40.736Z,100
2022-09-28T00:31:43.783Z,100
2022-09-28T00:51:38.549Z,100
2022-09-28T00:58:23.333Z,100
2022-09-28T01:04:34.792Z,98.9
2022-09-28T01:10:55.242Z,97.7
2022-09-28T01:17:20.816Z,98.6
2022-09-28T01:43:44.766Z,100
2022-09-28T01:50:17.341Z,100
2022-09-28T02:03:14.256Z,100
2022-09-28T02:09:37.767Z,100
2022-09-28T02:28:30.903Z,100
2022-09-28T02:40:43.597Z,100
2022-09-28T02:46:57.446Z,100
2022-09-28T02:53:14.444Z,100
2022-09-28T02:59:21.621Z,100
2022-09-28T03:05:32.054Z,100
2022-09-28T03:18:00.305Z,100
2022-09-28T03:37:11.802Z,100
2022-09-28T03:43:26.021Z,100
2022-09-28T03:56:02.911Z,100
2022-09-28T04:02:26.971Z,100
2022-09-28T04:08:49.737Z,100
2022-09-28T04:28:06.710Z,100
2022-09-28T04:40:54.669Z,100
2022-09-28T04:47:05.113Z,100
2022-09-28T05:00:04.983Z,100
2022-09-28T05:06:12.728Z,100
2022-09-28T05:12:52.867Z,99.8
2022-09-28T05:19:04.914Z,100
2022-09-28T05:25:02.111Z,100
2022-09-28T05:31:21.442Z,100
2022-09-28T05:37:43.268Z,99.5
2022-09-28T05:44:09.209Z,99.6
2022-09-28T05:57:04.521Z,100
2022-09-28T06:03:34.241Z,100
2022-09-28T06:16:54.116Z,100
2022-09-28T06:23:26.114Z,100
2022-09-28T06:29:30.888Z,100
2022-09-28T06:36:13.939Z,100
2022-09-28T06:42:36.773Z,100
2022-09-28T06:48:38.332Z,100
2022-09-28T06:54:32.703Z,100
2022-09-28T07:00:37.736Z,100
2022-09-28T07:06:41.209Z,99.8
2022-09-28T07:12:33.866Z,99.3
2022-09-28T07:18:27.197Z,99.6
2022-09-28T07:24:17.986Z,99.2
2022-09-28T07:30:11.910Z,97.2
2022-09-28T07:36:06.472Z,97.6
2022-09-28T07:42:03.165Z,95.9
2022-09-28T07:47:54.340Z,95.6
2022-09-28T07:53:46.847Z,95.4
2022-09-28T07:59:42.602Z,96.2
2022-09-28T08:05:39.141Z,94.8
2022-09-28T08:11:30.849Z,93.3
2022-09-28T08:17:23.664Z,93.8
2022-09-28T08:29:39.145Z,93.2
2022-09-28T08:35:32.757Z,90.4
2022-09-28T08:41:28.895Z,88.8
2022-09-28T08:47:27.261Z,88.3
2022-09-28T08:53:23.856Z,88.4
2022-09-28T08:59:15.968Z,90.8
2022-09-28T09:05:09.517Z,90.4
2022-09-28T09:11:05.221Z,91.3
2022-09-28T09:17:02.411Z,92.6
2022-09-28T09:22:54.282Z,90.7
2022-09-28T09:28:46.219Z,87.2
2022-09-28T09:34:46.360Z,86.5
2022-09-28T09:40:40.748Z,82.7
2022-09-28T09:46:47.273Z,81
2022-09-28T09:52:43.791Z,78.7
2022-09-28T09:58:35.223Z,80.5
2022-09-28T10:04:31.529Z,80.8
2022-09-28T10:10:21.345Z,78.9
2022-09-28T10:16:11.054Z,75.9
2022-09-28T10:22:05.745Z,77.2
2022-09-28T10:28:20.867Z,75.3
2022-09-28T10:34:14.919Z,75.3
2022-09-28T10:40:33.108Z,74.6
2022-09-28T10:46:36.197Z,75.1
2022-09-28T10:52:44.982Z,76.9
2022-09-28T11:04:50.203Z,74.7
2022-09-28T11:10:45.684Z,74.8
2022-09-28T11:16:42.457Z,71.6
2022-09-28T11:22:37.235Z,71.6
2022-09-28T11:28:42.441Z,71.4
2022-09-28T11:35:03.410Z,72.7
2022-09-28T11:41:05.212Z,74.8
2022-09-28T11:47:03.199Z,73.4
2022-09-28T11:53:01.062Z,74.2
2022-09-28T11:59:07.774Z,73.1
2022-09-28T12:05:04.561Z,73.9
2022-09-28T12:11:21.803Z,71.1
2022-09-28T12:17:23.455Z,72.5
2022-09-28T12:23:18.837Z,70.4
2022-09-28T12:29:32.562Z,71.8
2022-09-28T12:36:02.451Z,71.5
2022-09-28T12:41:59.603Z,72.4
2022-09-28T12:48:12.432Z,70.9
2022-09-28T12:54:07.116Z,73.1
2022-09-28T13:06:42.663Z,70.5
2022-09-28T13:12:49.344Z,71.3
2022-09-28T14:06:38.037Z,81
2022-09-28T14:12:58.032Z,80.1
2022-09-28T14:19:00.373Z,83.2
2022-09-28T14:31:47.644Z,82.1
2022-09-28T14:37:43.867Z,84.7
2022-09-28T14:50:04.239Z,84.2
2022-09-28T15:31:49.993Z,84.6
2022-09-28T15:38:03.517Z,87.4
2022-09-28T15:44:47.586Z,87.8
2022-09-28T17:02:45.531Z,91.1
2022-09-28T17:08:34.742Z,89.6
2022-09-28T17:14:25.189Z,87.7
2022-09-28T17:20:15.237Z,86.7
2022-09-28T17:26:05.817Z,84.6
2022-09-28T17:31:56.705Z,87.2
2022-09-28T17:37:48.023Z,86
2022-09-28T17:43:39.010Z,85.8
2022-09-28T17:49:30.502Z,91.4
2022-09-28T17:55:20.785Z,92.8
2022-09-28T18:01:11.774Z,92.8
2022-09-28T18:07:01.731Z,94.8
2022-09-28T18:12:50.257Z,96.6
2022-09-28T18:18:38.669Z,97.8
2022-09-28T18:24:29.297Z,96.8
2022-09-28T18:30:20.139Z,99.6
2022-09-28T18:36:11.402Z,97.6
2022-09-28T18:42:02.123Z,99.4
2022-09-28T18:47:53.804Z,100
2022-09-28T18:53:43.277Z,100
2022-09-28T18:59:33.652Z,100
2022-09-28T19:05:24.888Z,100
2022-09-28T19:11:15.818Z,100
2022-09-28T19:17:06.263Z,100
2022-09-28T19:22:57.567Z,100
2022-09-28T19:28:48.913Z,100
2022-09-28T19:34:40.274Z,100
2022-09-28T19:40:31.704Z,100
2022-09-28T19:46:23.428Z,100
2022-09-28T19:52:17.381Z,100
2022-09-28T19:58:08.430Z,100
2022-09-28T20:03:59.314Z,100
2022-09-28T20:09:51.087Z,99.8
2022-09-28T20:15:42.174Z,99.6
2022-09-28T20:21:33.472Z,99.8
2022-09-28T20:27:27.895Z,98.4
2022-09-28T20:33:30.418Z,100
2022-09-28T20:39:22.758Z,100
2022-09-28T20:45:13.961Z,100
2022-09-28T20:51:04.235Z,100
2022-09-28T20:56:55.698Z,100
2022-09-28T21:02:46.903Z,100
2022-09-28T21:08:37.017Z,100
2022-09-28T21:14:27.951Z,100
2022-09-28T21:20:20.760Z,100
2022-09-28T21:26:11.441Z,100
2022-09-28T21:32:02.317Z,100
2022-09-28T21:37:53.168Z,100
2022-09-28T21:43:43.296Z,100
2022-09-28T21:49:33.709Z,100
2022-09-28T21:55:24.791Z,100
2022-09-28T22:01:16.776Z,100
2022-09-28T22:07:06.661Z,100
2022-09-28T22:12:58.285Z,100
2022-09-28T22:18:50.135Z,100
2022-09-28T22:24:42.224Z,100
2022-09-28T22:30:34.817Z,100
2022-09-28T22:36:26.527Z,100
2022-09-28T22:42:18.438Z,100
2022-09-28T22:48:12.003Z,100
2022-09-28T22:54:04.728Z,100
2022-09-28T22:59:56.866Z,100
2022-09-28T23:05:50.161Z,100
2022-09-28T23:11:43.252Z,100
2022-09-28T23:17:35.533Z,100
2022-09-28T23:23:27.486Z,100
2022-09-28T23:29:20.254Z,100
2022-09-28T23:35:15.061Z,100
2022-09-28T23:41:08.359Z,100
2022-09-28T23:47:06.544Z,100
2022-09-28T23:52:58.212Z,100
2022-09-28T23:58:52.483Z,100
